sensor_id;sensor_type;location;lat;lon;timestamp;P1;durP1;ratioP1;P2;durP2;ratioP2
33862;SDS011;20158;51.436;-2.742;2022-08-06T00:01:59;2.78;;;2.47;;
33862;SDS011;20158;51.436;-2.742;2022-08-06T00:04:25;4.65;;;2.90;;
33862;SDS011;20158;51.436;-2.742;2022-08-06T00:06:51;5.32;;;3.08;;
33862;SDS011;20158;51.436;-2.742;2022-08-06T00:09:17;4.20;;;3.00;;
33862;SDS011;20158;51.436;-2.742;2022-08-06T00:11:43;4.82;;;3.33;;
33862;SDS011;20158;51.436;-2.742;2022-08-06T00:14:09;3.13;;;2.83;;
33862;SDS011;20158;51.436;-2.742;2022-08-06T00:16:35;3.63;;;3.13;;
33862;SDS011;20158;51.436;-2.742;2022-08-06T00:19:01;3.55;;;2.92;;
33862;SDS011;20158;51.436;-2.742;2022-08-06T00:21:27;5.22;;;2.70;;
33862;SDS011;20158;51.436;-2.742;2022-08-06T00:23:53;3.35;;;2.85;;
33862;SDS011;20158;51.436;-2.742;2022-08-06T00:26:19;4.10;;;2.47;;
33862;SDS011;20158;51.436;-2.742;2022-08-06T00:28:44;3.25;;;2.28;;
33862;SDS011;20158;51.436;-2.742;2022-08-06T00:31:10;2.55;;;2.30;;
33862;SDS011;20158;51.436;-2.742;2022-08-06T00:33:37;3.30;;;2.55;;
33862;SDS011;20158;51.436;-2.742;2022-08-06T00:36:04;3.10;;;2.70;;
33862;SDS011;20158;51.436;-2.742;2022-08-06T00:38:30;3.97;;;3.05;;
33862;SDS011;20158;51.436;-2.742;2022-08-06T00:40:56;2.97;;;2.40;;
33862;SDS011;20158;51.436;-2.742;2022-08-06T00:43:22;3.63;;;3.03;;
33862;SDS011;20158;51.436;-2.742;2022-08-06T00:45:48;3.25;;;2.45;;
33862;SDS011;20158;51.436;-2.742;2022-08-06T00:48:14;3.50;;;2.10;;
33862;SDS011;20158;51.436;-2.742;2022-08-06T00:50:40;2.78;;;2.45;;
33862;SDS011;20158;51.436;-2.742;2022-08-06T00:53:06;3.03;;;2.58;;
33862;SDS011;20158;51.436;-2.742;2022-08-06T00:55:32;3.88;;;2.40;;
33862;SDS011;20158;51.436;-2.742;2022-08-06T00:57:59;2.65;;;2.30;;
33862;SDS011;20158;51.436;-2.742;2022-08-06T01:00:25;3.00;;;2.65;;
33862;SDS011;20158;51.436;-2.742;2022-08-06T01:02:51;2.72;;;2.53;;
33862;SDS011;20158;51.436;-2.742;2022-08-06T01:05:17;2.95;;;2.65;;
33862;SDS011;20158;51.436;-2.742;2022-08-06T01:07:43;4.68;;;2.70;;
33862;SDS011;20158;51.436;-2.742;2022-08-06T01:10:09;4.05;;;2.53;;
33862;SDS011;20158;51.436;-2.742;2022-08-06T01:12:35;4.43;;;2.63;;
33862;SDS011;20158;51.436;-2.742;2022-08-06T01:15:01;3.00;;;2.42;;
33862;SDS011;20158;51.436;-2.742;2022-08-06T01:17:35;4.13;;;2.83;;
33862;SDS011;20158;51.436;-2.742;2022-08-06T01:20:47;2.55;;;2.15;;
33862;SDS011;20158;51.436;-2.742;2022-08-06T01:26:25;3.00;;;2.42;;
33862;SDS011;20158;51.436;-2.742;2022-08-06T01:28:55;2.70;;;2.42;;
33862;SDS011;20158;51.436;-2.742;2022-08-06T01:32:29;3.35;;;2.58;;
33862;SDS011;20158;51.436;-2.742;2022-08-06T01:37:08;3.90;;;2.65;;
33862;SDS011;20158;51.436;-2.742;2022-08-06T01:39:39;2.65;;;2.45;;
33862;SDS011;20158;51.436;-2.742;2022-08-06T01:42:09;3.50;;;2.60;;
33862;SDS011;20158;51.436;-2.742;2022-08-06T01:44:37;2.70;;;2.42;;
33862;SDS011;20158;51.436;-2.742;2022-08-06T01:47:08;2.42;;;2.22;;
33862;SDS011;20158;51.436;-2.742;2022-08-06T01:49:37;3.42;;;2.70;;
33862;SDS011;20158;51.436;-2.742;2022-08-06T01:52:07;4.22;;;2.95;;
33862;SDS011;20158;51.436;-2.742;2022-08-06T01:54:37;4.30;;;3.20;;
33862;SDS011;20158;51.436;-2.742;2022-08-06T01:57:07;3.20;;;2.78;;
33862;SDS011;20158;51.436;-2.742;2022-08-06T01:59:37;3.38;;;2.90;;
33862;SDS011;20158;51.436;-2.742;2022-08-06T02:02:08;3.10;;;2.53;;
33862;SDS011;20158;51.436;-2.742;2022-08-06T02:04:39;3.15;;;2.38;;
33862;SDS011;20158;51.436;-2.742;2022-08-06T02:07:08;3.30;;;2.45;;
33862;SDS011;20158;51.436;-2.742;2022-08-06T02:09:35;2.83;;;2.40;;
33862;SDS011;20158;51.436;-2.742;2022-08-06T02:12:15;2.58;;;2.38;;
33862;SDS011;20158;51.436;-2.742;2022-08-06T02:17:24;2.60;;;2.40;;
33862;SDS011;20158;51.436;-2.742;2022-08-06T02:19:53;2.75;;;2.28;;
33862;SDS011;20158;51.436;-2.742;2022-08-06T02:22:21;2.83;;;2.47;;
33862;SDS011;20158;51.436;-2.742;2022-08-06T02:24:48;4.68;;;2.70;;
33862;SDS011;20158;51.436;-2.742;2022-08-06T02:27:14;3.15;;;2.50;;
33862;SDS011;20158;51.436;-2.742;2022-08-06T02:29:42;4.30;;;2.55;;
33862;SDS011;20158;51.436;-2.742;2022-08-06T02:32:10;2.97;;;2.70;;
33862;SDS011;20158;51.436;-2.742;2022-08-06T02:34:38;2.75;;;2.55;;
33862;SDS011;20158;51.436;-2.742;2022-08-06T02:37:10;3.35;;;2.65;;
33862;SDS011;20158;51.436;-2.742;2022-08-06T02:39:49;3.33;;;2.83;;
33862;SDS011;20158;51.436;-2.742;2022-08-06T02:42:30;3.55;;;2.63;;
33862;SDS011;20158;51.436;-2.742;2022-08-06T02:45:25;3.35;;;2.22;;
33862;SDS011;20158;51.436;-2.742;2022-08-06T02:48:15;3.63;;;2.80;;
33862;SDS011;20158;51.436;-2.742;2022-08-06T02:50:45;3.10;;;2.58;;
33862;SDS011;20158;51.436;-2.742;2022-08-06T02:53:16;3.53;;;2.70;;
33862;SDS011;20158;51.436;-2.742;2022-08-06T02:55:51;5.03;;;2.88;;
33862;SDS011;20158;51.436;-2.742;2022-08-06T02:58:42;4.00;;;3.05;;
33862;SDS011;20158;51.436;-2.742;2022-08-06T03:01:10;3.25;;;2.85;;
33862;SDS011;20158;51.436;-2.742;2022-08-06T03:03:40;3.20;;;2.85;;
33862;SDS011;20158;51.436;-2.742;2022-08-06T03:06:08;2.97;;;2.38;;
33862;SDS011;20158;51.436;-2.742;2022-08-06T03:08:36;3.78;;;2.85;;
33862;SDS011;20158;51.436;-2.742;2022-08-06T03:11:03;2.83;;;2.42;;
33862;SDS011;20158;51.436;-2.742;2022-08-06T03:13:31;3.58;;;2.70;;
33862;SDS011;20158;51.436;-2.742;2022-08-06T03:15:58;4.40;;;3.00;;
33862;SDS011;20158;51.436;-2.742;2022-08-06T03:18:27;3.97;;;3.65;;
33862;SDS011;20158;51.436;-2.742;2022-08-06T03:20:54;3.65;;;3.20;;
33862;SDS011;20158;51.436;-2.742;2022-08-06T03:23:21;3.58;;;3.25;;
33862;SDS011;20158;51.436;-2.742;2022-08-06T03:25:47;4.05;;;2.95;;
33862;SDS011;20158;51.436;-2.742;2022-08-06T03:28:14;4.00;;;2.88;;
33862;SDS011;20158;51.436;-2.742;2022-08-06T03:30:42;4.63;;;3.20;;
33862;SDS011;20158;51.436;-2.742;2022-08-06T03:33:12;4.10;;;3.33;;
33862;SDS011;20158;51.436;-2.742;2022-08-06T03:35:39;3.85;;;3.33;;
33862;SDS011;20158;51.436;-2.742;2022-08-06T03:38:09;3.83;;;3.25;;
33862;SDS011;20158;51.436;-2.742;2022-08-06T03:40:37;3.70;;;3.30;;
33862;SDS011;20158;51.436;-2.742;2022-08-06T03:43:07;5.85;;;4.20;;
33862;SDS011;20158;51.436;-2.742;2022-08-06T03:45:35;5.43;;;4.18;;
33862;SDS011;20158;51.436;-2.742;2022-08-06T03:48:04;4.10;;;3.70;;
33862;SDS011;20158;51.436;-2.742;2022-08-06T03:50:38;4.00;;;3.00;;
33862;SDS011;20158;51.436;-2.742;2022-08-06T03:53:10;3.85;;;3.42;;
33862;SDS011;20158;51.436;-2.742;2022-08-06T03:55:43;4.32;;;3.92;;
33862;SDS011;20158;51.436;-2.742;2022-08-06T03:58:11;3.50;;;2.72;;
33862;SDS011;20158;51.436;-2.742;2022-08-06T04:00:40;3.50;;;3.20;;
33862;SDS011;20158;51.436;-2.742;2022-08-06T04:03:10;4.05;;;3.17;;
33862;SDS011;20158;51.436;-2.742;2022-08-06T04:05:38;3.40;;;3.10;;
33862;SDS011;20158;51.436;-2.742;2022-08-06T04:08:06;5.05;;;3.17;;
33862;SDS011;20158;51.436;-2.742;2022-08-06T04:10:38;4.18;;;3.38;;
33862;SDS011;20158;51.436;-2.742;2022-08-06T04:13:07;4.13;;;2.80;;
33862;SDS011;20158;51.436;-2.742;2022-08-06T04:15:38;4.07;;;3.63;;
33862;SDS011;20158;51.436;-2.742;2022-08-06T04:18:09;3.35;;;3.05;;
33862;SDS011;20158;51.436;-2.742;2022-08-06T04:20:39;2.75;;;2.50;;
33862;SDS011;20158;51.436;-2.742;2022-08-06T04:23:08;3.63;;;3.33;;
33862;SDS011;20158;51.436;-2.742;2022-08-06T04:25:36;4.90;;;3.83;;
33862;SDS011;20158;51.436;-2.742;2022-08-06T04:28:05;3.40;;;3.10;;
33862;SDS011;20158;51.436;-2.742;2022-08-06T04:30:32;3.65;;;3.17;;
33862;SDS011;20158;51.436;-2.742;2022-08-06T04:33:01;4.75;;;3.30;;
33862;SDS011;20158;51.436;-2.742;2022-08-06T04:35:29;4.22;;;3.28;;
33862;SDS011;20158;51.436;-2.742;2022-08-06T04:37:55;5.55;;;3.92;;
33862;SDS011;20158;51.436;-2.742;2022-08-06T04:40:23;4.30;;;3.65;;
33862;SDS011;20158;51.436;-2.742;2022-08-06T04:42:50;3.67;;;3.38;;
33862;SDS011;20158;51.436;-2.742;2022-08-06T04:45:16;5.05;;;3.55;;
33862;SDS011;20158;51.436;-2.742;2022-08-06T04:47:43;4.32;;;3.92;;
33862;SDS011;20158;51.436;-2.742;2022-08-06T04:50:10;4.03;;;3.50;;
33862;SDS011;20158;51.436;-2.742;2022-08-06T04:52:36;4.13;;;3.38;;
33862;SDS011;20158;51.436;-2.742;2022-08-06T04:55:03;3.95;;;3.55;;
33862;SDS011;20158;51.436;-2.742;2022-08-06T04:57:29;4.03;;;3.63;;
33862;SDS011;20158;51.436;-2.742;2022-08-06T04:59:55;3.60;;;3.28;;
33862;SDS011;20158;51.436;-2.742;2022-08-06T05:02:21;4.55;;;3.55;;
33862;SDS011;20158;51.436;-2.742;2022-08-06T05:04:47;3.85;;;3.28;;
33862;SDS011;20158;51.436;-2.742;2022-08-06T05:07:28;4.43;;;4.03;;
33862;SDS011;20158;51.436;-2.742;2022-08-06T05:09:56;4.38;;;3.88;;
33862;SDS011;20158;51.436;-2.742;2022-08-06T05:17:22;4.20;;;3.80;;
33862;SDS011;20158;51.436;-2.742;2022-08-06T05:19:53;4.63;;;3.40;;
33862;SDS011;20158;51.436;-2.742;2022-08-06T05:22:22;4.53;;;3.55;;
33862;SDS011;20158;51.436;-2.742;2022-08-06T05:24:50;5.68;;;3.47;;
33862;SDS011;20158;51.436;-2.742;2022-08-06T05:27:17;4.68;;;4.28;;
33862;SDS011;20158;51.436;-2.742;2022-08-06T05:29:44;4.97;;;3.92;;
33862;SDS011;20158;51.436;-2.742;2022-08-06T05:32:10;5.25;;;3.85;;
33862;SDS011;20158;51.436;-2.742;2022-08-06T05:34:36;4.88;;;4.07;;
33862;SDS011;20158;51.436;-2.742;2022-08-06T05:37:02;6.38;;;4.40;;
33862;SDS011;20158;51.436;-2.742;2022-08-06T05:39:29;4.90;;;3.45;;
33862;SDS011;20158;51.436;-2.742;2022-08-06T05:41:55;4.15;;;3.75;;
33862;SDS011;20158;51.436;-2.742;2022-08-06T05:44:20;4.60;;;3.50;;
33862;SDS011;20158;51.436;-2.742;2022-08-06T05:46:51;5.13;;;3.45;;
33862;SDS011;20158;51.436;-2.742;2022-08-06T05:49:21;4.13;;;3.40;;
33862;SDS011;20158;51.436;-2.742;2022-08-06T05:52:02;4.55;;;3.72;;
33862;SDS011;20158;51.436;-2.742;2022-08-06T05:54:53;5.80;;;3.47;;
33862;SDS011;20158;51.436;-2.742;2022-08-06T05:57:29;4.38;;;3.53;;
33862;SDS011;20158;51.436;-2.742;2022-08-06T06:00:16;3.65;;;3.28;;
33862;SDS011;20158;51.436;-2.742;2022-08-06T06:02:45;5.70;;;4.18;;
33862;SDS011;20158;51.436;-2.742;2022-08-06T06:05:13;5.78;;;5.13;;
33862;SDS011;20158;51.436;-2.742;2022-08-06T06:07:40;8.50;;;6.28;;
33862;SDS011;20158;51.436;-2.742;2022-08-06T06:10:06;11.10;;;6.50;;
33862;SDS011;20158;51.436;-2.742;2022-08-06T06:12:34;6.45;;;5.85;;
33862;SDS011;20158;51.436;-2.742;2022-08-06T06:15:02;6.63;;;5.97;;
33862;SDS011;20158;51.436;-2.742;2022-08-06T06:20:06;7.97;;;7.28;;
33862;SDS011;20158;51.436;-2.742;2022-08-06T06:23:02;7.40;;;6.28;;
33862;SDS011;20158;51.436;-2.742;2022-08-06T06:37:56;10.52;;;6.97;;
33862;SDS011;20158;51.436;-2.742;2022-08-06T06:40:33;7.32;;;6.20;;
33862;SDS011;20158;51.436;-2.742;2022-08-06T06:43:27;7.38;;;6.45;;
33862;SDS011;20158;51.436;-2.742;2022-08-06T06:46:18;7.15;;;6.25;;
33862;SDS011;20158;51.436;-2.742;2022-08-06T06:48:46;7.38;;;6.70;;
33862;SDS011;20158;51.436;-2.742;2022-08-06T06:51:41;6.47;;;5.60;;
33862;SDS011;20158;51.436;-2.742;2022-08-06T06:54:05;7.05;;;6.32;;
33862;SDS011;20158;51.436;-2.742;2022-08-06T06:56:36;7.45;;;6.15;;
33862;SDS011;20158;51.436;-2.742;2022-08-06T06:59:09;8.15;;;6.18;;
33862;SDS011;20158;51.436;-2.742;2022-08-06T07:01:40;6.88;;;6.10;;
33862;SDS011;20158;51.436;-2.742;2022-08-06T07:04:09;6.75;;;6.15;;
33862;SDS011;20158;51.436;-2.742;2022-08-06T07:06:38;7.55;;;6.63;;
33862;SDS011;20158;51.436;-2.742;2022-08-06T07:09:05;6.70;;;5.95;;
33862;SDS011;20158;51.436;-2.742;2022-08-06T07:11:34;7.80;;;6.72;;
33862;SDS011;20158;51.436;-2.742;2022-08-06T07:14:01;6.93;;;6.18;;
33862;SDS011;20158;51.436;-2.742;2022-08-06T07:16:28;7.80;;;7.05;;
33862;SDS011;20158;51.436;-2.742;2022-08-06T07:18:57;7.38;;;6.15;;
33862;SDS011;20158;51.436;-2.742;2022-08-06T07:21:26;7.78;;;6.35;;
33862;SDS011;20158;51.436;-2.742;2022-08-06T07:23:54;7.25;;;6.65;;
33862;SDS011;20158;51.436;-2.742;2022-08-06T07:26:21;8.32;;;5.85;;
33862;SDS011;20158;51.436;-2.742;2022-08-06T07:28:49;7.10;;;6.22;;
33862;SDS011;20158;51.436;-2.742;2022-08-06T07:31:17;8.65;;;6.75;;
33862;SDS011;20158;51.436;-2.742;2022-08-06T07:33:44;12.98;;;7.05;;
33862;SDS011;20158;51.436;-2.742;2022-08-06T07:36:11;7.60;;;6.82;;
33862;SDS011;20158;51.436;-2.742;2022-08-06T07:38:41;7.53;;;6.57;;
33862;SDS011;20158;51.436;-2.742;2022-08-06T07:41:09;7.95;;;6.63;;
33862;SDS011;20158;51.436;-2.742;2022-08-06T07:43:46;6.50;;;5.88;;
33862;SDS011;20158;51.436;-2.742;2022-08-06T07:46:17;9.38;;;6.85;;
33862;SDS011;20158;51.436;-2.742;2022-08-06T07:48:49;7.10;;;6.22;;
33862;SDS011;20158;51.436;-2.742;2022-08-06T07:51:23;7.18;;;6.47;;
33862;SDS011;20158;51.436;-2.742;2022-08-06T07:54:07;7.05;;;6.45;;
33862;SDS011;20158;51.436;-2.742;2022-08-06T07:56:35;8.18;;;6.50;;
33862;SDS011;20158;51.436;-2.742;2022-08-06T07:59:04;8.35;;;6.43;;
33862;SDS011;20158;51.436;-2.742;2022-08-06T08:01:31;7.22;;;6.53;;
33862;SDS011;20158;51.436;-2.742;2022-08-06T08:03:58;7.45;;;6.75;;
33862;SDS011;20158;51.436;-2.742;2022-08-06T08:06:43;7.43;;;6.30;;
33862;SDS011;20158;51.436;-2.742;2022-08-06T08:09:12;7.00;;;6.28;;
33862;SDS011;20158;51.436;-2.742;2022-08-06T08:11:40;8.55;;;6.28;;
33862;SDS011;20158;51.436;-2.742;2022-08-06T08:14:08;8.07;;;5.93;;
33862;SDS011;20158;51.436;-2.742;2022-08-06T08:16:35;6.97;;;6.32;;
33862;SDS011;20158;51.436;-2.742;2022-08-06T08:19:18;7.78;;;6.28;;
33862;SDS011;20158;51.436;-2.742;2022-08-06T08:21:47;8.45;;;6.45;;
33862;SDS011;20158;51.436;-2.742;2022-08-06T08:24:13;7.25;;;6.47;;
33862;SDS011;20158;51.436;-2.742;2022-08-06T08:26:41;7.38;;;6.65;;
33862;SDS011;20158;51.436;-2.742;2022-08-06T08:29:07;6.72;;;5.68;;
33862;SDS011;20158;51.436;-2.742;2022-08-06T08:31:35;7.22;;;5.68;;
33862;SDS011;20158;51.436;-2.742;2022-08-06T08:34:01;7.00;;;5.30;;
33862;SDS011;20158;51.436;-2.742;2022-08-06T08:36:27;5.47;;;4.88;;
33862;SDS011;20158;51.436;-2.742;2022-08-06T08:38:53;6.43;;;5.55;;
33862;SDS011;20158;51.436;-2.742;2022-08-06T08:41:26;5.60;;;4.60;;
33862;SDS011;20158;51.436;-2.742;2022-08-06T08:44:05;5.32;;;4.82;;
33862;SDS011;20158;51.436;-2.742;2022-08-06T08:46:36;7.47;;;4.95;;
33862;SDS011;20158;51.436;-2.742;2022-08-06T08:51:33;6.70;;;4.55;;
33862;SDS011;20158;51.436;-2.742;2022-08-06T08:54:02;7.13;;;5.47;;
33862;SDS011;20158;51.436;-2.742;2022-08-06T08:56:33;5.97;;;4.53;;
33862;SDS011;20158;51.436;-2.742;2022-08-06T08:59:00;6.25;;;5.32;;
33862;SDS011;20158;51.436;-2.742;2022-08-06T09:01:27;5.80;;;4.70;;
33862;SDS011;20158;51.436;-2.742;2022-08-06T09:03:53;7.75;;;5.20;;
33862;SDS011;20158;51.436;-2.742;2022-08-06T09:06:20;7.18;;;5.18;;
33862;SDS011;20158;51.436;-2.742;2022-08-06T09:08:46;6.13;;;4.68;;
33862;SDS011;20158;51.436;-2.742;2022-08-06T09:11:13;6.30;;;4.88;;
33862;SDS011;20158;51.436;-2.742;2022-08-06T09:13:39;5.13;;;3.88;;
33862;SDS011;20158;51.436;-2.742;2022-08-06T09:16:05;5.50;;;4.57;;
33862;SDS011;20158;51.436;-2.742;2022-08-06T09:18:32;6.82;;;3.88;;
33862;SDS011;20158;51.436;-2.742;2022-08-06T09:20:59;5.82;;;4.38;;
33862;SDS011;20158;51.436;-2.742;2022-08-06T09:23:27;5.00;;;3.50;;
33862;SDS011;20158;51.436;-2.742;2022-08-06T09:25:53;7.10;;;3.75;;
33862;SDS011;20158;51.436;-2.742;2022-08-06T09:30:59;6.53;;;3.90;;
33862;SDS011;20158;51.436;-2.742;2022-08-06T09:33:33;5.22;;;4.03;;
33862;SDS011;20158;51.436;-2.742;2022-08-06T09:36:08;6.15;;;3.95;;
33862;SDS011;20158;51.436;-2.742;2022-08-06T09:38:45;5.22;;;3.70;;
33862;SDS011;20158;51.436;-2.742;2022-08-06T09:41:19;9.75;;;5.88;;
33862;SDS011;20158;51.436;-2.742;2022-08-06T09:43:47;7.45;;;4.90;;
33862;SDS011;20158;51.436;-2.742;2022-08-06T09:46:16;6.82;;;4.70;;
33862;SDS011;20158;51.436;-2.742;2022-08-06T09:48:59;8.02;;;4.93;;
33862;SDS011;20158;51.436;-2.742;2022-08-06T09:51:26;5.43;;;4.28;;
33862;SDS011;20158;51.436;-2.742;2022-08-06T09:53:53;5.63;;;4.35;;
33862;SDS011;20158;51.436;-2.742;2022-08-06T09:56:24;6.50;;;4.57;;
33862;SDS011;20158;51.436;-2.742;2022-08-06T09:58:57;7.45;;;5.05;;
33862;SDS011;20158;51.436;-2.742;2022-08-06T10:01:27;8.02;;;5.95;;
33862;SDS011;20158;51.436;-2.742;2022-08-06T10:03:55;5.93;;;5.32;;
33862;SDS011;20158;51.436;-2.742;2022-08-06T10:06:21;6.45;;;5.70;;
33862;SDS011;20158;51.436;-2.742;2022-08-06T10:08:49;6.63;;;5.43;;
33862;SDS011;20158;51.436;-2.742;2022-08-06T10:11:37;6.38;;;4.43;;
33862;SDS011;20158;51.436;-2.742;2022-08-06T10:14:04;5.60;;;4.00;;
33862;SDS011;20158;51.436;-2.742;2022-08-06T10:16:31;4.43;;;3.70;;
33862;SDS011;20158;51.436;-2.742;2022-08-06T10:18:57;9.95;;;4.15;;
33862;SDS011;20158;51.436;-2.742;2022-08-06T10:21:25;4.15;;;3.38;;
33862;SDS011;20158;51.436;-2.742;2022-08-06T10:24:01;5.18;;;3.72;;
33862;SDS011;20158;51.436;-2.742;2022-08-06T10:26:31;5.20;;;3.30;;
33862;SDS011;20158;51.436;-2.742;2022-08-06T10:29:05;5.72;;;3.88;;
33862;SDS011;20158;51.436;-2.742;2022-08-06T10:31:32;3.20;;;2.90;;
33862;SDS011;20158;51.436;-2.742;2022-08-06T10:34:02;4.47;;;2.95;;
33862;SDS011;20158;51.436;-2.742;2022-08-06T10:36:35;5.95;;;3.42;;
33862;SDS011;20158;51.436;-2.742;2022-08-06T10:39:05;3.53;;;2.97;;
33862;SDS011;20158;51.436;-2.742;2022-08-06T10:41:32;5.38;;;4.07;;
33862;SDS011;20158;51.436;-2.742;2022-08-06T10:44:01;5.13;;;3.42;;
33862;SDS011;20158;51.436;-2.742;2022-08-06T10:46:27;16.75;;;4.43;;
33862;SDS011;20158;51.436;-2.742;2022-08-06T10:48:54;4.63;;;3.67;;
33862;SDS011;20158;51.436;-2.742;2022-08-06T10:51:22;5.43;;;3.80;;
33862;SDS011;20158;51.436;-2.742;2022-08-06T10:53:49;5.55;;;3.72;;
33862;SDS011;20158;51.436;-2.742;2022-08-06T10:56:15;4.85;;;3.28;;
33862;SDS011;20158;51.436;-2.742;2022-08-06T10:58:42;4.05;;;3.63;;
33862;SDS011;20158;51.436;-2.742;2022-08-06T11:01:09;6.13;;;3.70;;
33862;SDS011;20158;51.436;-2.742;2022-08-06T11:14:38;4.93;;;2.50;;
33862;SDS011;20158;51.436;-2.742;2022-08-06T11:17:05;5.18;;;2.70;;
33862;SDS011;20158;51.436;-2.742;2022-08-06T11:19:43;5.63;;;3.00;;
33862;SDS011;20158;51.436;-2.742;2022-08-06T11:24:58;4.90;;;2.92;;
33862;SDS011;20158;51.436;-2.742;2022-08-06T11:30:12;4.28;;;3.15;;
33862;SDS011;20158;51.436;-2.742;2022-08-06T11:32:44;5.03;;;2.80;;
33862;SDS011;20158;51.436;-2.742;2022-08-06T11:37:59;6.40;;;3.35;;
33862;SDS011;20158;51.436;-2.742;2022-08-06T11:40:26;4.25;;;2.80;;
33862;SDS011;20158;51.436;-2.742;2022-08-06T11:42:52;4.05;;;1.95;;
33862;SDS011;20158;51.436;-2.742;2022-08-06T11:45:18;5.93;;;2.47;;
33862;SDS011;20158;51.436;-2.742;2022-08-06T11:48:03;5.50;;;3.20;;
33862;SDS011;20158;51.436;-2.742;2022-08-06T11:50:30;4.38;;;2.38;;
33862;SDS011;20158;51.436;-2.742;2022-08-06T11:52:57;3.13;;;2.40;;
33862;SDS011;20158;51.436;-2.742;2022-08-06T11:55:22;3.67;;;2.53;;
33862;SDS011;20158;51.436;-2.742;2022-08-06T11:57:49;2.83;;;2.47;;
33862;SDS011;20158;51.436;-2.742;2022-08-06T12:00:54;4.90;;;3.22;;
33862;SDS011;20158;51.436;-2.742;2022-08-06T12:03:37;3.20;;;2.40;;
33862;SDS011;20158;51.436;-2.742;2022-08-06T12:09:08;5.68;;;2.58;;
33862;SDS011;20158;51.436;-2.742;2022-08-06T12:11:34;3.20;;;2.85;;
33862;SDS011;20158;51.436;-2.742;2022-08-06T12:14:01;3.42;;;2.42;;
33862;SDS011;20158;51.436;-2.742;2022-08-06T12:16:37;3.88;;;2.50;;
33862;SDS011;20158;51.436;-2.742;2022-08-06T12:19:04;5.00;;;2.50;;
33862;SDS011;20158;51.436;-2.742;2022-08-06T12:21:36;3.95;;;2.67;;
33862;SDS011;20158;51.436;-2.742;2022-08-06T12:24:04;8.02;;;2.90;;
33862;SDS011;20158;51.436;-2.742;2022-08-06T12:26:31;5.82;;;2.97;;
33862;SDS011;20158;51.436;-2.742;2022-08-06T12:29:02;5.38;;;3.42;;
33862;SDS011;20158;51.436;-2.742;2022-08-06T12:31:30;5.30;;;3.38;;
33862;SDS011;20158;51.436;-2.742;2022-08-06T12:33:58;3.90;;;2.95;;
33862;SDS011;20158;51.436;-2.742;2022-08-06T12:36:28;5.20;;;2.92;;
33862;SDS011;20158;51.436;-2.742;2022-08-06T12:38:56;3.72;;;2.55;;
33862;SDS011;20158;51.436;-2.742;2022-08-06T12:41:23;3.55;;;2.85;;
33862;SDS011;20158;51.436;-2.742;2022-08-06T12:43:58;5.50;;;2.53;;
33862;SDS011;20158;51.436;-2.742;2022-08-06T12:46:24;3.10;;;2.78;;
33862;SDS011;20158;51.436;-2.742;2022-08-06T12:48:50;3.10;;;2.80;;
33862;SDS011;20158;51.436;-2.742;2022-08-06T12:51:17;5.40;;;3.00;;
33862;SDS011;20158;51.436;-2.742;2022-08-06T12:53:47;3.95;;;2.25;;
33862;SDS011;20158;51.436;-2.742;2022-08-06T12:56:14;3.15;;;2.50;;
33862;SDS011;20158;51.436;-2.742;2022-08-06T12:58:43;4.00;;;2.65;;
33862;SDS011;20158;51.436;-2.742;2022-08-06T13:01:12;3.10;;;2.80;;
33862;SDS011;20158;51.436;-2.742;2022-08-06T13:03:41;4.57;;;2.22;;
33862;SDS011;20158;51.436;-2.742;2022-08-06T13:06:10;3.00;;;2.60;;
33862;SDS011;20158;51.436;-2.742;2022-08-06T13:08:38;6.28;;;2.97;;
33862;SDS011;20158;51.436;-2.742;2022-08-06T13:11:04;3.58;;;2.85;;
33862;SDS011;20158;51.436;-2.742;2022-08-06T13:13:38;3.42;;;2.70;;
33862;SDS011;20158;51.436;-2.742;2022-08-06T13:16:07;6.93;;;3.15;;
33862;SDS011;20158;51.436;-2.742;2022-08-06T13:18:34;5.70;;;3.08;;
33862;SDS011;20158;51.436;-2.742;2022-08-06T13:21:00;4.38;;;2.78;;
33862;SDS011;20158;51.436;-2.742;2022-08-06T13:23:28;4.00;;;3.13;;
33862;SDS011;20158;51.436;-2.742;2022-08-06T13:26:09;5.10;;;2.60;;
33862;SDS011;20158;51.436;-2.742;2022-08-06T13:28:37;4.05;;;2.35;;
33862;SDS011;20158;51.436;-2.742;2022-08-06T13:31:16;5.32;;;2.40;;
33862;SDS011;20158;51.436;-2.742;2022-08-06T13:33:43;2.78;;;2.22;;
33862;SDS011;20158;51.436;-2.742;2022-08-06T13:36:28;3.95;;;2.38;;
33862;SDS011;20158;51.436;-2.742;2022-08-06T13:38:55;3.10;;;2.70;;
33862;SDS011;20158;51.436;-2.742;2022-08-06T13:41:27;2.88;;;2.10;;
33862;SDS011;20158;51.436;-2.742;2022-08-06T13:43:54;5.70;;;2.92;;
33862;SDS011;20158;51.436;-2.742;2022-08-06T13:46:21;3.55;;;2.42;;
33862;SDS011;20158;51.436;-2.742;2022-08-06T13:48:51;3.03;;;2.30;;
33862;SDS011;20158;51.436;-2.742;2022-08-06T13:51:18;5.55;;;2.40;;
33862;SDS011;20158;51.436;-2.742;2022-08-06T13:53:45;6.60;;;2.75;;
33862;SDS011;20158;51.436;-2.742;2022-08-06T13:56:14;3.63;;;2.70;;
33862;SDS011;20158;51.436;-2.742;2022-08-06T13:58:41;4.78;;;3.80;;
33862;SDS011;20158;51.436;-2.742;2022-08-06T14:01:10;3.83;;;2.75;;
33862;SDS011;20158;51.436;-2.742;2022-08-06T14:03:37;3.75;;;2.90;;
33862;SDS011;20158;51.436;-2.742;2022-08-06T14:06:03;5.15;;;2.95;;
33862;SDS011;20158;51.436;-2.742;2022-08-06T14:08:29;3.17;;;2.30;;
33862;SDS011;20158;51.436;-2.742;2022-08-06T14:10:55;3.38;;;2.42;;
33862;SDS011;20158;51.436;-2.742;2022-08-06T14:13:22;4.75;;;3.00;;
33862;SDS011;20158;51.436;-2.742;2022-08-06T14:15:49;4.63;;;2.80;;
33862;SDS011;20158;51.436;-2.742;2022-08-06T14:18:17;2.92;;;2.60;;
33862;SDS011;20158;51.436;-2.742;2022-08-06T14:20:44;6.32;;;3.42;;
33862;SDS011;20158;51.436;-2.742;2022-08-06T14:23:11;8.95;;;2.63;;
33862;SDS011;20158;51.436;-2.742;2022-08-06T14:25:38;3.38;;;2.97;;
33862;SDS011;20158;51.436;-2.742;2022-08-06T14:28:05;3.83;;;3.25;;
33862;SDS011;20158;51.436;-2.742;2022-08-06T14:30:31;7.28;;;3.00;;
33862;SDS011;20158;51.436;-2.742;2022-08-06T14:32:58;3.95;;;2.65;;
33862;SDS011;20158;51.436;-2.742;2022-08-06T14:35:26;3.15;;;2.83;;
33862;SDS011;20158;51.436;-2.742;2022-08-06T14:37:52;3.67;;;2.95;;
33862;SDS011;20158;51.436;-2.742;2022-08-06T14:40:19;5.00;;;2.83;;
33862;SDS011;20158;51.436;-2.742;2022-08-06T14:43:06;4.10;;;2.47;;
33862;SDS011;20158;51.436;-2.742;2022-08-06T14:45:51;4.75;;;2.75;;
33862;SDS011;20158;51.436;-2.742;2022-08-06T14:48:17;4.93;;;3.00;;
33862;SDS011;20158;51.436;-2.742;2022-08-06T14:50:43;3.60;;;2.40;;
33862;SDS011;20158;51.436;-2.742;2022-08-06T14:53:09;2.97;;;2.58;;
33862;SDS011;20158;51.436;-2.742;2022-08-06T14:55:35;4.03;;;3.08;;
33862;SDS011;20158;51.436;-2.742;2022-08-06T14:58:01;4.50;;;3.20;;
33862;SDS011;20158;51.436;-2.742;2022-08-06T15:00:27;6.60;;;2.97;;
33862;SDS011;20158;51.436;-2.742;2022-08-06T15:02:53;5.05;;;2.83;;
33862;SDS011;20158;51.436;-2.742;2022-08-06T15:05:19;2.75;;;2.50;;
33862;SDS011;20158;51.436;-2.742;2022-08-06T15:07:44;3.72;;;3.10;;
33862;SDS011;20158;51.436;-2.742;2022-08-06T15:10:11;4.68;;;2.90;;
33862;SDS011;20158;51.436;-2.742;2022-08-06T15:12:36;4.68;;;3.47;;
33862;SDS011;20158;51.436;-2.742;2022-08-06T15:15:03;5.30;;;3.10;;
33862;SDS011;20158;51.436;-2.742;2022-08-06T15:17:30;4.53;;;2.70;;
33862;SDS011;20158;51.436;-2.742;2022-08-06T15:19:56;5.65;;;3.55;;
33862;SDS011;20158;51.436;-2.742;2022-08-06T15:22:22;3.65;;;3.35;;
33862;SDS011;20158;51.436;-2.742;2022-08-06T15:24:48;6.25;;;3.63;;
33862;SDS011;20158;51.436;-2.742;2022-08-06T15:27:14;5.18;;;3.47;;
33862;SDS011;20158;51.436;-2.742;2022-08-06T15:29:47;4.32;;;3.50;;
33862;SDS011;20158;51.436;-2.742;2022-08-06T15:32:14;3.55;;;2.97;;
33862;SDS011;20158;51.436;-2.742;2022-08-06T15:34:40;4.15;;;3.30;;
33862;SDS011;20158;51.436;-2.742;2022-08-06T15:37:06;5.50;;;3.58;;
33862;SDS011;20158;51.436;-2.742;2022-08-06T15:39:33;4.60;;;3.50;;
33862;SDS011;20158;51.436;-2.742;2022-08-06T15:42:00;3.47;;;3.17;;
33862;SDS011;20158;51.436;-2.742;2022-08-06T15:44:26;8.00;;;3.55;;